KSXU

Santa Rosa Route 66 Airport

Santa Rosa, New Mexico, USA
METAR KSXU 151935Z AUTO 27028G37KT 10SM CLR 17/M05 A2981 RMK AO2 T01681046
Observed Flight Rules
Feb-15 @ 19:35 UTC (16 minutes ago) Visual Flight Rules
Wind Visibility Clouds
270° at 28 knots
 Gusting to 37 knots
10 miles
  • Clear skies
Temperatures Readings
Current 17°C / 63°F
Dewpoint -5°C / 23°F
Humidity 22%
Altimeter 29.81" Hg
Pressure 1009.52 hPa
Elevation 1460
METAR KSXU 151935Z AUTO 27028G37KT 10SM CLR 17/M05 A2981 RMK AO2 T01681046
Observed Flight Rules
Feb-15 @ 19:35 UTC
(16 minutes ago)
VFR
Wind Visibility
270° at 28 knots
 Gusting to 37 knots
10 miles
Clouds
  • Clear skies
Temperature Dewpoint
17°C / 63°F -5°C / 23°F
Humidity Altimeter Pressure
22% 29.81" Hg 1009.52 hPa